Time;durP1;ratioP1;P1;durP2;ratioP2;P2;SDS_P1;SDS_P2;PMS_P1;PMS_P2;Temp;Humidity;BMP_temperature;BMP_pressure;BME280_temperature;BME280_humidity;BME280_pressure;Samples;Min_cycle;Max_cycle;Signal;HPM_P1;HPM_P2
2023/10/23 00:00:08;;;;;;;12.10;5.27;;;;;;;;;;5087785;28;20036;-68
2023/10/23 00:02:38;;;;;;;18.85;5.95;;;;;;;;;;5074497;28;20284;-67
2023/10/23 00:05:03;;;;;;;9.48;4.18;;;;;;;;;;5074911;28;20527;-68
2023/10/23 00:07:28;;;;;;;9.18;4.03;;;;;;;;;;5073593;28;20024;-68
2023/10/23 00:09:54;;;;;;;11.25;4.63;;;;;;;;;;5074249;28;20032;-68
2023/10/23 00:12:19;;;;;;;9.87;4.50;;;;;;;;;;5057399;28;20054;-69
2023/10/23 00:14:44;;;;;;;13.27;4.60;;;;;;;;;;5073775;28;20364;-68
2023/10/23 00:17:09;;;;;;;11.13;4.90;;;;;;;;;;5059410;28;20021;-68
2023/10/23 00:19:35;;;;;;;14.57;5.50;;;;;;;;;;5060974;28;20290;-68
2023/10/23 00:22:00;;;;;;;9.57;4.67;;;;;;;;;;5075821;28;20280;-68
2023/10/23 00:24:25;;;;;;;12.83;4.60;;;;;;;;;;5072430;28;20479;-69
2023/10/23 00:26:50;;;;;;;12.88;5.53;;;;;;;;;;5072608;28;20311;-68
2023/10/23 00:29:16;;;;;;;7.73;4.20;;;;;;;;;;5075258;28;20037;-69
2023/10/23 00:31:41;;;;;;;13.20;4.43;;;;;;;;;;5070487;28;20033;-69
2023/10/23 00:34:06;;;;;;;11.20;5.07;;;;;;;;;;5075044;28;20490;-70
2023/10/23 00:36:31;;;;;;;11.00;5.07;;;;;;;;;;5073170;28;20292;-70
2023/10/23 00:38:57;;;;;;;7.40;4.22;;;;;;;;;;5073105;28;20056;-69
2023/10/23 00:41:22;;;;;;;12.83;5.17;;;;;;;;;;5076003;28;20145;-70
2023/10/23 00:43:48;;;;;;;12.32;5.15;;;;;;;;;;5071667;28;20290;-70
2023/10/23 00:46:19;;;;;;;8.85;5.10;;;;;;;;;;5064634;28;20028;-70
2023/10/23 00:48:45;;;;;;;12.75;4.75;;;;;;;;;;5075644;28;20040;-69
2023/10/23 00:51:12;;;;;;;11.02;4.82;;;;;;;;;;5073729;28;20024;-68
2023/10/23 00:53:38;;;;;;;10.73;4.97;;;;;;;;;;5072181;28;20040;-70
2023/10/23 00:56:07;;;;;;;10.32;5.07;;;;;;;;;;5074011;28;20115;-69
2023/10/23 00:58:37;;;;;;;12.35;5.05;;;;;;;;;;5075832;28;20111;-69
2023/10/23 01:01:03;;;;;;;14.82;5.80;;;;;;;;;;5062490;28;20024;-69
2023/10/23 01:03:28;;;;;;;9.77;5.05;;;;;;;;;;5074472;28;20580;-69
2023/10/23 01:05:54;;;;;;;12.77;5.47;;;;;;;;;;5077934;28;20059;-69
2023/10/23 01:08:19;;;;;;;13.83;5.37;;;;;;;;;;5074383;28;20284;-68
2023/10/23 01:10:45;;;;;;;10.27;4.87;;;;;;;;;;5074016;28;20780;-69
2023/10/23 01:13:10;;;;;;;15.68;5.60;;;;;;;;;;5071809;28;20384;-68
2023/10/23 01:15:36;;;;;;;10.40;5.07;;;;;;;;;;5073249;28;20020;-70
2023/10/23 01:18:02;;;;;;;9.63;5.13;;;;;;;;;;5073385;28;20284;-70
2023/10/23 01:20:28;;;;;;;14.63;5.28;;;;;;;;;;5066042;28;20077;-69
2023/10/23 01:22:55;;;;;;;12.80;4.95;;;;;;;;;;5074526;28;20028;-69
2023/10/23 01:25:20;;;;;;;10.82;5.10;;;;;;;;;;5074866;28;20036;-70
2023/10/23 01:27:46;;;;;;;13.00;5.00;;;;;;;;;;5072707;28;20419;-70
2023/10/23 01:30:11;;;;;;;9.47;5.07;;;;;;;;;;5075942;28;20020;-70
2023/10/23 01:32:36;;;;;;;11.07;4.82;;;;;;;;;;5073433;28;20265;-70
2023/10/23 01:35:02;;;;;;;11.35;4.88;;;;;;;;;;5073175;28;20051;-70
2023/10/23 01:37:27;;;;;;;6.75;3.65;;;;;;;;;;5072389;28;20111;-69
2023/10/23 01:39:52;;;;;;;9.00;3.67;;;;;;;;;;5074449;28;20104;-69
2023/10/23 01:42:18;;;;;;;8.23;4.10;;;;;;;;;;5071955;28;20182;-69
2023/10/23 01:44:43;;;;;;;8.20;4.17;;;;;;;;;;5064460;28;20025;-69
2023/10/23 01:47:08;;;;;;;10.23;4.63;;;;;;;;;;5075049;28;20044;-69
2023/10/23 01:49:33;;;;;;;11.10;5.03;;;;;;;;;;5073214;28;20110;-70
2023/10/23 01:51:59;;;;;;;12.25;4.82;;;;;;;;;;5075159;28;20503;-70
2023/10/23 01:54:24;;;;;;;9.07;4.20;;;;;;;;;;5075402;28;20081;-68
2023/10/23 01:56:49;;;;;;;8.43;4.90;;;;;;;;;;5071703;28;20280;-67
2023/10/23 01:59:14;;;;;;;8.13;4.30;;;;;;;;;;5072538;28;20080;-67
2023/10/23 02:01:40;;;;;;;8.27;3.80;;;;;;;;;;5074913;28;20032;-67
2023/10/23 02:04:06;;;;;;;10.60;4.30;;;;;;;;;;5070870;28;20085;-67
2023/10/23 02:06:31;;;;;;;9.82;4.30;;;;;;;;;;5058957;28;20028;-67
2023/10/23 02:08:56;;;;;;;9.85;4.80;;;;;;;;;;5073336;28;20107;-67
2023/10/23 02:11:22;;;;;;;10.57;4.80;;;;;;;;;;5073931;28;20635;-67
2023/10/23 02:13:47;;;;;;;9.07;4.60;;;;;;;;;;5070199;28;20482;-68
2023/10/23 02:16:12;;;;;;;8.88;4.47;;;;;;;;;;5072182;28;20335;-68
2023/10/23 02:18:37;;;;;;;9.07;4.90;;;;;;;;;;5058715;28;20085;-68
2023/10/23 02:21:03;;;;;;;12.03;4.83;;;;;;;;;;5059159;28;20627;-68
2023/10/23 02:23:30;;;;;;;8.77;5.05;;;;;;;;;;5053580;28;20420;-68
2023/10/23 02:25:55;;;;;;;10.02;5.22;;;;;;;;;;5073390;28;20043;-69
2023/10/23 02:28:20;;;;;;;10.77;5.23;;;;;;;;;;5071656;28;20028;-68
2023/10/23 02:30:45;;;;;;;11.00;5.00;;;;;;;;;;5073384;28;20273;-70
2023/10/23 02:33:11;;;;;;;13.70;5.57;;;;;;;;;;5074344;28;20355;-68
2023/10/23 02:35:37;;;;;;;9.33;4.40;;;;;;;;;;5064700;28;20081;-69
2023/10/23 02:38:02;;;;;;;9.63;4.57;;;;;;;;;;5067662;28;20682;-67
2023/10/23 02:40:28;;;;;;;10.95;4.60;;;;;;;;;;5080096;28;20051;-68
2023/10/23 02:42:53;;;;;;;10.52;4.40;;;;;;;;;;5076582;28;20504;-68
2023/10/23 02:45:18;;;;;;;8.53;4.77;;;;;;;;;;5075631;28;20036;-68
2023/10/23 02:47:43;;;;;;;8.27;4.50;;;;;;;;;;5078683;28;20028;-68
2023/10/23 02:50:09;;;;;;;9.30;4.40;;;;;;;;;;5079103;28;20036;-68
2023/10/23 02:52:34;;;;;;;9.13;4.40;;;;;;;;;;5074542;28;20020;-68
2023/10/23 02:54:59;;;;;;;8.40;4.70;;;;;;;;;;5074206;28;20429;-68
2023/10/23 02:57:25;;;;;;;12.37;4.57;;;;;;;;;;5078216;28;20389;-68
2023/10/23 02:59:50;;;;;;;8.13;4.70;;;;;;;;;;5074393;28;20390;-68
2023/10/23 03:02:16;;;;;;;10.80;5.13;;;;;;;;;;5063726;28;20402;-68
2023/10/23 03:04:42;;;;;;;10.43;4.72;;;;;;;;;;5076530;28;20775;-69
2023/10/23 03:07:07;;;;;;;9.63;4.43;;;;;;;;;;5073543;28;20051;-69
2023/10/23 03:09:32;;;;;;;12.85;4.82;;;;;;;;;;5073955;28;20027;-68
2023/10/23 03:11:57;;;;;;;11.83;4.73;;;;;;;;;;5078249;28;20020;-69
2023/10/23 03:14:23;;;;;;;9.50;4.57;;;;;;;;;;5075045;28;20898;-69
2023/10/23 03:16:48;;;;;;;9.53;4.50;;;;;;;;;;5077078;28;20321;-67
2023/10/23 03:19:13;;;;;;;7.78;4.13;;;;;;;;;;5075852;28;20272;-68
2023/10/23 03:21:38;;;;;;;8.57;3.80;;;;;;;;;;5063376;28;20077;-68
2023/10/23 03:24:04;;;;;;;7.90;4.07;;;;;;;;;;5076890;28;20024;-67
2023/10/23 03:26:30;;;;;;;9.10;4.47;;;;;;;;;;5064809;28;20293;-68
2023/10/23 03:28:55;;;;;;;9.90;4.27;;;;;;;;;;5077677;28;20074;-68
2023/10/23 03:31:21;;;;;;;8.48;4.25;;;;;;;;;;5074766;28;20269;-68
2023/10/23 03:33:46;;;;;;;11.63;4.43;;;;;;;;;;5074939;28;20516;-67
2023/10/23 03:36:11;;;;;;;10.83;4.53;;;;;;;;;;5077333;28;20020;-68
2023/10/23 03:38:37;;;;;;;10.73;4.90;;;;;;;;;;5061383;28;20297;-69
2023/10/23 03:41:02;;;;;;;10.17;4.50;;;;;;;;;;5076816;28;20037;-69
2023/10/23 03:43:28;;;;;;;8.05;4.38;;;;;;;;;;5076224;28;20269;-68
2023/10/23 03:45:53;;;;;;;10.52;4.78;;;;;;;;;;5075860;28;20105;-68
2023/10/23 03:48:18;;;;;;;10.70;4.82;;;;;;;;;;5074559;28;20039;-71
2023/10/23 03:50:43;;;;;;;10.68;6.18;;;;;;;;;;5090897;27;20105;-68
2023/10/23 03:53:09;;;;;;;14.20;5.50;;;;;;;;;;5076690;28;20027;-68
2023/10/23 03:55:37;;;;;;;13.60;6.20;;;;;;;;;;5074497;28;20347;-68
2023/10/23 03:58:03;;;;;;;9.60;4.60;;;;;;;;;;5074581;28;20771;-68
2023/10/23 04:00:29;;;;;;;12.87;4.97;;;;;;;;;;5088187;27;20280;-69
2023/10/23 04:02:54;;;;;;;11.45;5.05;;;;;;;;;;5075699;28;20700;-68
2023/10/23 04:05:20;;;;;;;16.25;5.43;;;;;;;;;;5074235;28;20037;-68
2023/10/23 04:07:45;;;;;;;13.77;5.03;;;;;;;;;;5076294;28;20012;-69
2023/10/23 04:10:13;;;;;;;16.33;4.97;;;;;;;;;;5073956;28;20806;-70
2023/10/23 04:12:38;;;;;;;12.02;5.05;;;;;;;;;;5076734;28;20032;-69
2023/10/23 04:15:04;;;;;;;11.03;4.87;;;;;;;;;;5073767;28;20039;-70
2023/10/23 04:17:29;;;;;;;16.30;5.28;;;;;;;;;;5076048;28;20280;-68
2023/10/23 04:19:54;;;;;;;14.60;5.30;;;;;;;;;;5060045;28;20020;-68
2023/10/23 04:22:20;;;;;;;17.90;5.35;;;;;;;;;;5074526;28;20376;-67
2023/10/23 04:24:47;;;;;;;14.53;5.07;;;;;;;;;;5061483;28;20028;-68
2023/10/23 04:27:12;;;;;;;10.77;5.68;;;;;;;;;;5074145;28;20824;-68
2023/10/23 04:29:37;;;;;;;15.97;5.70;;;;;;;;;;5077473;28;20103;-69
2023/10/23 04:32:02;;;;;;;16.33;5.70;;;;;;;;;;5071804;28;20288;-69
2023/10/23 04:34:28;;;;;;;7.13;3.83;;;;;;;;;;5074887;28;20375;-68
2023/10/23 04:36:53;;;;;;;13.97;4.37;;;;;;;;;;5072591;28;20027;-70
2023/10/23 04:39:18;;;;;;;11.73;4.70;;;;;;;;;;5074760;28;20048;-70
2023/10/23 04:41:43;;;;;;;12.00;4.37;;;;;;;;;;5075294;28;20031;-69
2023/10/23 04:44:09;;;;;;;8.87;4.07;;;;;;;;;;5061917;28;20737;-69
2023/10/23 04:46:34;;;;;;;8.43;4.70;;;;;;;;;;5077367;28;20090;-69
2023/10/23 04:48:59;;;;;;;14.20;4.50;;;;;;;;;;5073188;28;20289;-69
2023/10/23 04:51:25;;;;;;;16.90;4.40;;;;;;;;;;5059279;28;20276;-70
2023/10/23 04:53:50;;;;;;;9.63;4.13;;;;;;;;;;5074167;28;20573;-71
2023/10/23 04:56:15;;;;;;;14.30;4.63;;;;;;;;;;5074976;28;20115;-69
2023/10/23 04:58:40;;;;;;;10.30;4.33;;;;;;;;;;5073510;28;20405;-69
2023/10/23 05:01:14;;;;;;;14.57;4.03;;;;;;;;;;5074094;28;20273;-69
2023/10/23 05:03:39;;;;;;;14.25;4.90;;;;;;;;;;5074963;28;20020;-69
2023/10/23 05:06:05;;;;;;;13.67;4.43;;;;;;;;;;5087032;28;20589;-69
2023/10/23 05:08:30;;;;;;;13.45;4.72;;;;;;;;;;5073546;28;20277;-69
2023/10/23 05:11:04;;;;;;;15.43;5.47;;;;;;;;;;5074132;28;20048;-70
2023/10/23 05:13:29;;;;;;;13.88;6.03;;;;;;;;;;5075380;28;20020;-69
2023/10/23 05:16:00;;;;;;;12.33;6.13;;;;;;;;;;5072911;28;20069;-69
2023/10/23 05:18:26;;;;;;;16.42;5.00;;;;;;;;;;5073969;28;20287;-70
2023/10/23 05:20:51;;;;;;;27.88;4.93;;;;;;;;;;5076222;28;20090;-69
2023/10/23 05:23:17;;;;;;;14.20;5.20;;;;;;;;;;5073213;28;20032;-69
2023/10/23 05:25:46;;;;;;;14.52;4.60;;;;;;;;;;5071728;28;20370;-68
2023/10/23 05:28:11;;;;;;;15.05;5.18;;;;;;;;;;5075147;28;20039;-68
2023/10/23 05:30:37;;;;;;;16.77;5.00;;;;;;;;;;5070143;28;20460;-67
2023/10/23 05:33:03;;;;;;;15.27;5.20;;;;;;;;;;5074573;28;20032;-70
2023/10/23 05:35:28;;;;;;;17.83;5.80;;;;;;;;;;5073591;28;20048;-69
2023/10/23 05:37:53;;;;;;;14.30;4.63;;;;;;;;;;5073326;28;20448;-69
2023/10/23 05:54:02;;;;;;;23.77;9.35;;;;;;;;;;5039715;27;20470;-69
2023/10/23 05:56:28;;;;;;;28.77;12.57;;;;;;;;;;5031434;28;20041;-69
2023/10/23 05:58:53;;;;;;;32.08;14.85;;;;;;;;;;5032149;28;20032;-69
2023/10/23 06:01:18;;;;;;;23.17;10.07;;;;;;;;;;5031259;28;20030;-69
2023/10/23 06:03:43;;;;;;;18.02;9.50;;;;;;;;;;5032830;28;20471;-69
2023/10/23 06:06:09;;;;;;;16.73;8.52;;;;;;;;;;5031349;28;20116;-69
2023/10/23 06:08:34;;;;;;;19.75;8.10;;;;;;;;;;5034310;28;20574;-69
2023/10/23 06:10:59;;;;;;;19.67;8.07;;;;;;;;;;5035371;28;21493;-69
2023/10/23 06:13:25;;;;;;;21.10;8.63;;;;;;;;;;5033004;28;20033;-69
2023/10/23 06:15:50;;;;;;;19.77;7.60;;;;;;;;;;5035672;28;20102;-68
2023/10/23 06:18:16;;;;;;;23.02;7.43;;;;;;;;;;5035624;28;20025;-71
2023/10/23 06:20:41;;;;;;;19.33;8.15;;;;;;;;;;5033649;28;20124;-70
2023/10/23 06:23:08;;;;;;;26.15;8.13;;;;;;;;;;5033111;28;20028;-70
2023/10/23 06:25:33;;;;;;;19.73;8.18;;;;;;;;;;5031978;28;20025;-67
2023/10/23 06:27:59;;;;;;;19.10;8.43;;;;;;;;;;5040826;28;20040;-68
2023/10/23 06:30:24;;;;;;;21.98;8.32;;;;;;;;;;5032826;28;20278;-67
2023/10/23 06:32:50;;;;;;;18.43;9.07;;;;;;;12.69;nan;100700.06;5033709;28;20014;-67
2023/10/23 06:35:18;;;;;;;20.52;8.43;;;;;;;;;;5030545;28;20029;-68
2023/10/23 06:37:44;;;;;;;17.67;8.07;;;;;;;;;;5033765;28;20091;-68
2023/10/23 06:40:09;;;;;;;20.98;8.60;;;;;;;;;;5034559;28;20594;-68
2023/10/23 06:42:35;;;;;;;21.17;9.02;;;;;;;;;;5035278;28;20024;-68
2023/10/23 06:45:00;;;;;;;22.43;8.33;;;;;;;;;;5029969;28;20116;-68
2023/10/23 06:47:26;;;;;;;18.98;8.07;;;;;;;;;;5032387;28;20274;-68
2023/10/23 06:49:51;;;;;;;17.83;8.60;;;;;;;;;;5033206;28;20555;-69
2023/10/23 06:52:16;;;;;;;17.37;8.87;;;;;;;;;;5030311;28;20058;-70
2023/10/23 06:54:41;;;;;;;19.30;8.10;;;;;;;;;;5035910;28;20277;-70
2023/10/23 06:57:07;;;;;;;21.70;8.57;;;;;;;;;;5035053;28;20304;-69
2023/10/23 06:59:33;;;;;;;21.27;7.97;;;;;;;;;;5032089;28;20051;-70
2023/10/23 07:01:58;;;;;;;19.48;8.35;;;;;;;;;;5033028;28;20083;-71
2023/10/23 07:04:24;;;;;;;17.95;8.90;;;;;;;;;;5022443;28;20112;-71
2023/10/23 07:06:49;;;;;;;21.43;8.27;;;;;;;;;;5018932;28;20033;-71
2023/10/23 07:09:14;;;;;;;20.30;9.23;;;;;;;;;;5019948;28;20626;-70
2023/10/23 07:11:39;;;;;;;20.53;8.30;;;;;;;;;;5019681;28;20290;-71
2023/10/23 07:14:05;;;;;;;19.10;8.87;;;;;;;;;;5016730;28;20753;-70
2023/10/23 07:16:30;;;;;;;22.33;9.20;;;;;;;;;;5016348;28;20286;-70
2023/10/23 07:18:55;;;;;;;18.37;8.10;;;;;;;;;;5017629;28;20037;-70
2023/10/23 07:21:23;;;;;;;14.77;8.35;;;;;;;;;;5019432;28;20844;-69
2023/10/23 07:23:48;;;;;;;16.80;8.05;;;;;;;;;;5016998;28;20053;-69
2023/10/23 07:26:16;;;;;;;16.58;8.18;;;;;;;;;;5019534;28;20119;-69
2023/10/23 07:28:42;;;;;;;18.40;8.27;;;;;;;;;;5016639;28;20080;-71
2023/10/23 07:31:08;;;;;;;15.18;7.85;;;;;;;;;;5017678;28;20034;-70
2023/10/23 07:33:33;;;;;;;17.27;8.57;;;;;;;;;;5017126;28;20049;-70
2023/10/23 07:36:10;;;;;;;19.77;8.73;;;;;;;;;;5016559;28;20037;-70
2023/10/23 07:38:36;;;;;;;15.43;7.55;;;;;;;;;;5019006;28;20033;-70
2023/10/23 07:41:01;;;;;;;15.43;7.38;;;;;;;;;;5017264;28;20025;-70
2023/10/23 07:43:29;;;;;;;13.82;7.85;;;;;;;;;;5019525;28;20022;-69
2023/10/23 07:45:55;;;;;;;15.90;8.18;;;;;;;;;;5014214;28;20072;-69
2023/10/23 07:48:21;;;;;;;15.23;7.47;;;;;;;;;;5015470;28;20146;-69
2023/10/23 07:50:47;;;;;;;16.98;8.60;;;;;;;14.93;nan;100764.41;5022771;28;20044;-69
2023/10/23 07:53:12;;;;;;;17.25;7.78;;;;;;;;;;5019674;28;20046;-68
2023/10/23 07:55:38;;;;;;;16.93;7.40;;;;;;;;;;5017840;28;20033;-69
2023/10/23 07:58:03;;;;;;;17.48;8.02;;;;;;;;;;5012570;28;20290;-69
2023/10/23 08:00:28;;;;;;;13.65;8.00;;;;;;;;;;5023238;28;20155;-68
2023/10/23 08:02:54;;;;;;;15.48;8.00;;;;;;;;;;5013602;28;20080;-69
2023/10/23 08:05:19;;;;;;;18.73;8.20;;;;;;;;;;5022331;28;20021;-68
2023/10/23 08:07:44;;;;;;;18.27;8.83;;;;;;;;;;5017227;28;20052;-68
2023/10/23 08:10:10;;;;;;;17.83;8.87;;;;;;;15.49;nan;100694.25;5018097;28;20031;-69
2023/10/23 08:12:35;;;;;;;17.25;7.82;;;;;;;;;;5017445;28;20562;-69
2023/10/23 08:15:00;;;;;;;13.83;7.50;;;;;;;;;;5015867;28;20028;-69
2023/10/23 08:17:26;;;;;;;12.00;7.30;;;;;;;;;;5015081;28;21230;-70
2023/10/23 08:19:51;;;;;;;14.32;7.00;;;;;;;;;;5014733;28;20543;-70
2023/10/23 08:22:16;;;;;;;14.87;7.70;;;;;;;15.95;nan;100677.94;5013791;28;20048;-69
2023/10/23 08:24:42;;;;;;;18.67;7.63;;;;;;;;;;5017337;28;20132;-70
2023/10/23 08:27:07;;;;;;;16.63;8.37;;;;;;;;;;5017502;28;20392;-70
2023/10/23 08:29:32;;;;;;;14.93;7.57;;;;;;;;;;5015125;28;20149;-69
2023/10/23 08:31:59;;;;;;;16.33;8.07;;;;;;;;;;5016879;28;20862;-69
2023/10/23 08:34:24;;;;;;;15.10;7.22;;;;;;;;;;5018686;28;20029;-71
2023/10/23 08:36:50;;;;;;;14.17;6.30;;;;;;;;;;5017026;28;20033;-72
2023/10/23 08:39:15;;;;;;;12.23;6.30;;;;;;;;;;5017169;28;20033;-72
2023/10/23 08:41:40;;;;;;;14.35;6.18;;;;;;;;;;5015857;28;20610;-72
2023/10/23 08:44:06;;;;;;;15.73;6.53;;;;;;;;;;5013044;28;20026;-73
2023/10/23 08:46:33;;;;;;;9.93;5.68;;;;;;;;;;5016480;28;20033;-72
2023/10/23 08:48:58;;;;;;;11.18;6.05;;;;;;;;;;5015304;28;20598;-73
2023/10/23 08:51:24;;;;;;;12.52;5.45;;;;;;;;;;5017085;28;20041;-72
2023/10/23 08:53:54;;;;;;;8.38;4.35;;;;;;;;;;5013085;28;20042;-72
2023/10/23 08:56:20;;;;;;;10.32;5.07;;;;;;;;;;5009536;28;20056;-72
2023/10/23 08:58:47;;;;;;;10.55;5.00;;;;;;;;;;5015601;28;20030;-72
2023/10/23 09:01:13;;;;;;;9.05;5.75;;;;;;;;;;5016683;28;20083;-72
2023/10/23 09:03:39;;;;;;;12.30;5.38;;;;;;;;;;5014261;28;20022;-72
2023/10/23 09:06:08;;;;;;;16.20;5.68;;;;;;;17.93;nan;100720.84;5015441;28;20129;-72
2023/10/23 09:08:34;;;;;;;;;;;;;;;;;;5017212;28;20412;-72
2023/10/23 09:11:03;;;;;;;11.43;6.80;;;;;;;;;;5018939;28;19917;-72
2023/10/23 09:13:38;;;;;;;13.63;7.57;;;;;;;;;;5020882;28;20138;-73
2023/10/23 09:16:08;;;;;;;14.32;7.45;;;;;;;18.50;nan;100695.75;5016988;28;20437;-73
2023/10/23 09:18:34;;;;;;;14.95;7.60;;;;;;;;;;5015855;28;20022;-72
2023/10/23 09:21:01;;;;;;;11.32;6.88;;;;;;;18.72;nan;100698.09;5013231;28;20377;-73
2023/10/23 09:23:27;;;;;;;10.73;6.03;;;;;;;18.75;nan;100734.09;5013050;28;20472;-73
2023/10/23 09:25:57;;;;;;;11.73;6.45;;;;;;;18.88;nan;100690.88;5014931;28;20597;-73
2023/10/23 09:28:22;;;;;;;14.88;6.30;;;;;;;18.88;nan;100616.16;5016291;28;20108;-73
2023/10/23 09:30:48;;;;;;;13.38;5.85;;;;;;;19.10;nan;100675.28;5016508;28;20656;-71
2023/10/23 09:33:14;;;;;;;12.52;5.20;;;;;;;19.21;nan;100664.56;5014788;28;20057;-70
2023/10/23 09:35:40;;;;;;;11.85;5.55;;;;;;;19.33;nan;100694.41;5014028;28;20049;-72
2023/10/23 09:38:15;;;;;;;10.38;4.78;;;;;;;19.40;nan;100697.56;5017746;28;20041;-71
2023/10/23 09:40:42;;;;;;;11.07;4.60;;;;;;;;;;5014275;28;20028;-73
2023/10/23 09:43:08;;;;;;;10.07;4.50;;;;;;;19.60;nan;100688.59;5018291;28;20068;-71
2023/10/23 09:45:35;;;;;;;10.07;4.57;;;;;;;19.68;nan;100698.75;5016830;28;20584;-72
2023/10/23 09:48:01;;;;;;;13.07;4.85;;;;;;;19.72;nan;100665.03;5016987;28;20036;-75
2023/10/23 09:50:28;;;;;;;7.25;4.28;;;;;;;19.89;nan;100677.97;5010598;28;20049;-71
2023/10/23 09:52:57;;;;;;;9.02;4.63;;;;;;;20.00;nan;100678.72;5017224;28;20543;-73
2023/10/23 09:55:26;;;;;;;;;;;;;;;20.07;nan;100668.50;5018132;28;20125;-71
2023/10/23 09:57:59;;;;;;;8.55;4.38;;;;;;;20.14;nan;100670.84;5016069;28;19921;-72
2023/10/23 10:00:26;;;;;;;7.80;3.65;;;;;;;20.17;nan;100664.91;5017599;28;20088;-68
2023/10/23 10:02:54;;;;;;;6.05;3.83;;;;;;;20.27;nan;100677.38;5014872;28;20029;-68
2023/10/23 10:05:32;;;;;;;9.18;3.72;;;;;;;20.25;nan;100639.44;5011016;28;20099;-68
2023/10/23 10:08:08;;;;;;;5.85;3.22;;;;;;;20.33;nan;100647.66;5020188;28;20037;-69
2023/10/23 10:10:35;;;;;;;7.53;3.65;;;;;;;20.45;nan;100627.69;5020259;28;20018;-71
2023/10/23 10:13:03;;;;;;;10.18;3.22;;;;;;;20.56;nan;100670.13;5014900;28;20028;-72
2023/10/23 10:15:31;;;;;;;7.85;3.20;;;;;;;20.62;nan;100662.06;5014472;28;20399;-68
2023/10/23 10:17:56;;;;;;;9.75;3.33;;;;;;;20.66;nan;100647.03;5014422;28;20164;-69
2023/10/23 10:20:22;;;;;;;8.73;2.95;;;;;;;;;;5015843;28;20030;-68
2023/10/23 10:23:05;;;;;;;10.98;2.70;;;;;;;20.91;nan;100649.38;5016385;28;20568;-73
2023/10/23 10:25:33;;;;;;;4.00;2.70;;;;;;;20.93;nan;100623.13;5014674;28;20044;-71
2023/10/23 10:28:02;;;;;;;7.60;3.00;;;;;;;21.01;nan;100635.06;5015592;28;20021;-73
2023/10/23 10:30:50;;;;;;;5.60;2.90;;;;;;;21.17;nan;100636.44;5015590;28;20026;-73
2023/10/23 10:33:29;;;;;;;6.20;3.05;;;;;;;21.24;nan;100601.28;5019954;28;20794;-72
2023/10/23 10:36:01;;;;;;;5.15;2.88;;;;;;;;;;5015055;28;20036;-70
2023/10/23 10:38:31;;;;;;;6.20;2.50;;;;;;;21.43;nan;100612.78;5014619;28;20492;-74
2023/10/23 10:41:04;;;;;;;3.80;2.53;;;;;;;21.51;nan;100597.13;5018033;28;20555;-73
2023/10/23 10:43:37;;;;;;;3.75;2.60;;;;;;;21.60;nan;100612.25;5024477;28;20024;-71
2023/10/23 10:46:14;;;;;;;11.65;2.20;;;;;;;21.59;nan;100601.81;5019856;28;20040;-72
2023/10/23 10:48:45;;;;;;;9.32;2.50;;;;;;;21.65;nan;100600.66;5018900;28;20067;-72
2023/10/23 10:51:15;;;;;;;8.52;2.72;;;;;;;21.74;nan;100600.75;5022591;28;20025;-73
2023/10/23 10:53:40;;;;;;;6.05;2.22;;;;;;;21.77;nan;100606.34;5018913;28;20054;-69
2023/10/23 10:56:08;;;;;;;4.30;2.47;;;;;;;21.84;nan;100632.75;5019630;28;20024;-69
2023/10/23 10:58:36;;;;;;;5.15;2.05;;;;;;;21.96;nan;100608.16;5016888;28;20025;-70
2023/10/23 11:01:02;;;;;;;5.13;2.00;;;;;;;22.00;nan;100603.78;5017936;28;20032;-70
2023/10/23 11:03:30;;;;;;;3.80;2.15;;;;;;;22.14;nan;100585.81;5013959;28;20052;-71
2023/10/23 11:05:56;;;;;;;2.65;1.83;;;;;;;22.17;nan;100614.72;5017764;28;20029;-69
2023/10/23 11:08:21;;;;;;;6.88;2.78;;;;;;;22.19;nan;100625.94;5016429;28;20021;-69
2023/10/23 11:10:47;;;;;;;3.50;2.00;;;;;;;22.23;nan;100599.34;5017427;28;20018;-69
2023/10/23 11:13:15;;;;;;;5.15;2.13;;;;;;;22.31;nan;100601.34;5016272;28;20021;-67
2023/10/23 11:15:42;;;;;;;6.57;2.08;;;;;;;22.40;nan;100586.13;5016548;28;20548;-70
2023/10/23 11:18:08;;;;;;;4.43;2.20;;;;;;;22.46;nan;100605.63;5020416;28;20041;-71
2023/10/23 11:20:35;;;;;;;3.72;2.10;;;;;;;22.52;nan;100594.47;5016564;28;20112;-70
2023/10/23 11:23:00;;;;;;;5.82;2.08;;;;;;;22.55;nan;100581.53;5017815;28;20792;-71
2023/10/23 11:25:26;;;;;;;4.65;2.17;;;;;;;22.57;nan;100598.94;5015369;28;20485;-71
2023/10/23 11:27:52;;;;;;;6.20;2.00;;;;;;;22.64;nan;100542.94;5017085;28;20644;-70
2023/10/23 11:30:18;;;;;;;4.95;1.88;;;;;;;22.72;nan;100592.44;5018068;28;20029;-70
2023/10/23 11:32:44;;;;;;;5.40;2.17;;;;;;;22.82;nan;100545.78;5016927;28;20032;-69
2023/10/23 11:35:09;;;;;;;3.53;1.80;;;;;;;22.90;nan;100578.06;5018383;28;20033;-70
2023/10/23 11:37:39;;;;;;;4.55;1.77;;;;;;;22.98;nan;100591.88;5015815;28;20025;-70
2023/10/23 11:40:07;;;;;;;2.90;1.50;;;;;;;22.99;nan;100583.56;5018552;28;20033;-70
2023/10/23 11:42:42;;;;;;;4.83;1.97;;;;;;;23.10;nan;100597.53;5017415;28;20053;-70
2023/10/23 11:45:09;;;;;;;5.32;2.20;;;;;;;23.12;nan;100614.94;5017418;28;20279;-71
2023/10/23 11:47:37;;;;;;;5.78;2.45;;;;;;;23.01;nan;100575.19;5018423;28;20072;-70
2023/10/23 11:50:05;;;;;;;6.10;2.85;;;;;;;23.00;nan;100573.59;5018643;28;20044;-70
2023/10/23 11:52:30;;;;;;;9.35;2.65;;;;;;;23.07;nan;100568.59;5018097;28;20042;-73
2023/10/23 11:54:56;;;;;;;4.20;2.05;;;;;;;23.19;nan;100560.78;5013368;28;20100;-69
2023/10/23 11:57:22;;;;;;;5.03;2.53;;;;;;;23.26;nan;100568.44;5021793;28;20399;-71
2023/10/23 11:59:47;;;;;;;8.45;2.28;;;;;;;23.30;nan;100577.47;5019075;28;20026;-74
2023/10/23 12:02:15;;;;;;;5.60;2.30;;;;;;;23.29;nan;100584.72;5018730;28;20718;-70
2023/10/23 12:04:43;;;;;;;3.53;1.80;;;;;;;23.30;nan;100572.88;5015656;28;20480;-72
2023/10/23 12:07:11;;;;;;;7.70;2.00;;;;;;;23.34;nan;100586.50;5016606;28;20108;-74
2023/10/23 12:09:37;;;;;;;6.07;2.35;;;;;;;23.20;nan;100550.84;5017057;28;20128;-70
2023/10/23 12:12:04;;;;;;;2.92;1.88;;;;;;;23.26;nan;100574.59;5018134;28;20100;-71
2023/10/23 12:14:29;;;;;;;6.25;2.08;;;;;;;23.33;nan;100579.53;5014816;28;20037;-69
2023/10/23 12:16:54;;;;;;;3.90;2.00;;;;;;;;;;5016518;28;20036;-68
2023/10/23 12:19:20;;;;;;;3.20;1.90;;;;;;;23.31;nan;100560.25;5023285;28;20037;-68
2023/10/23 12:21:45;;;;;;;4.25;1.90;;;;;;;23.44;nan;100586.25;5014614;28;20550;-69
2023/10/23 12:24:11;;;;;;;3.17;1.90;;;;;;;23.44;nan;100547.81;5020365;28;20021;-70
2023/10/23 12:26:40;;;;;;;6.18;1.50;;;;;;;23.44;nan;100620.38;5017878;28;20040;-70
2023/10/23 12:29:07;;;;;;;;;;;;;;;23.47;nan;100622.47;5016452;28;20088;-71
2023/10/23 12:31:32;;;;;;;5.00;1.40;;;;;;;23.42;nan;100615.34;5015603;28;20379;-71
2023/10/23 12:33:58;;;;;;;4.30;1.50;;;;;;;23.42;nan;100619.91;5019911;28;20040;-69
2023/10/23 12:36:23;;;;;;;2.05;1.42;;;;;;;23.43;nan;100616.91;5016108;28;20545;-69
2023/10/23 12:38:48;;;;;;;3.28;1.80;;;;;;;23.48;nan;100619.47;5021217;28;20091;-69
2023/10/23 12:41:14;;;;;;;2.83;1.70;;;;;;;23.28;nan;100601.94;5018293;28;20026;-69
2023/10/23 12:43:39;;;;;;;5.78;1.65;;;;;;;23.32;nan;100602.94;5016980;28;20080;-71
2023/10/23 12:46:14;;;;;;;4.00;1.65;;;;;;;23.39;nan;100617.81;5015240;28;20048;-69
2023/10/23 12:48:43;;;;;;;3.50;1.45;;;;;;;23.40;nan;100611.38;5014278;28;20431;-69
2023/10/23 12:51:09;;;;;;;3.50;1.40;;;;;;;23.52;nan;100625.81;5012501;28;20403;-70
2023/10/23 12:53:34;;;;;;;2.88;1.70;;;;;;;23.56;nan;100616.06;5016129;28;20030;-70
2023/10/23 12:56:00;;;;;;;2.58;1.45;;;;;;;23.56;nan;100609.91;5018560;28;20232;-69
2023/10/23 12:58:25;;;;;;;7.28;1.40;;;;;;;23.61;nan;100607.06;5017251;28;20025;-70
2023/10/23 13:00:50;;;;;;;7.82;1.58;;;;;;;23.65;nan;100612.63;5014203;28;20026;-70
2023/10/23 13:03:16;;;;;;;3.47;1.55;;;;;;;23.67;nan;100607.72;5045020;28;20033;-70
2023/10/23 13:05:41;;;;;;;4.47;1.50;;;;;;;23.51;nan;100580.44;5015452;28;20026;-70
2023/10/23 13:08:07;;;;;;;4.00;1.50;;;;;;;23.65;nan;100607.25;5012642;28;20029;-70
2023/10/23 13:10:33;;;;;;;5.28;1.40;;;;;;;23.64;nan;100611.03;5015020;28;20025;-69
2023/10/23 13:12:58;;;;;;;3.05;1.70;;;;;;;23.60;nan;100605.47;5016613;28;20075;-69
2023/10/23 13:15:24;;;;;;;2.97;1.58;;;;;;;23.60;nan;100613.53;5019535;28;20654;-68
2023/10/23 13:17:53;;;;;;;2.78;1.60;;;;;;;23.59;nan;100611.97;5048419;28;20025;-68
2023/10/23 13:20:19;;;;;;;3.22;1.45;;;;;;;23.59;nan;100605.81;5016950;28;20137;-68
2023/10/23 13:23:16;;;;;;;6.70;1.73;;;;;;;23.62;nan;100605.97;5015508;28;20026;-68
2023/10/23 13:25:41;;;;;;;2.47;1.30;;;;;;;23.59;nan;100597.72;5022244;28;20025;-71
2023/10/23 13:28:07;;;;;;;4.10;1.50;;;;;;;23.50;nan;100590.41;5045419;28;20041;-70
2023/10/23 13:30:32;;;;;;;3.40;1.55;;;;;;;23.56;nan;100591.88;5015529;28;20030;-70
2023/10/23 13:32:57;;;;;;;5.25;1.52;;;;;;;23.54;nan;100593.28;5014959;28;20039;-69
2023/10/23 13:35:23;;;;;;;4.40;1.58;;;;;;;23.54;nan;100594.06;5009355;28;20062;-69
2023/10/23 13:37:48;;;;;;;5.43;2.20;;;;;;;23.49;nan;100578.06;5015196;28;20036;-69